sensor_id;sensor_type;location;lat;lon;timestamp;temperature;humidity
13123;DHT22;6627;50.920;12.050;2023-04-25T00:00:04;5.80;99.90
13123;DHT22;6627;50.920;12.050;2023-04-25T00:02:33;5.90;99.90
13123;DHT22;6627;50.920;12.050;2023-04-25T00:05:00;5.80;58.80
13123;DHT22;6627;50.920;12.050;2023-04-25T00:07:28;5.90;1.00
13123;DHT22;6627;50.920;12.050;2023-04-25T00:09:55;5.80;1.00
13123;DHT22;6627;50.920;12.050;2023-04-25T00:12:22;6.00;99.90
13123;DHT22;6627;50.920;12.050;2023-04-25T00:14:51;5.90;99.90
13123;DHT22;6627;50.920;12.050;2023-04-25T00:17:19;6.00;1.00
13123;DHT22;6627;50.920;12.050;2023-04-25T00:19:47;5.80;1.00
13123;DHT22;6627;50.920;12.050;2023-04-25T00:22:15;5.80;1.00
13123;DHT22;6627;50.920;12.050;2023-04-25T00:24:43;5.80;99.90
13123;DHT22;6627;50.920;12.050;2023-04-25T00:27:12;5.80;1.00
13123;DHT22;6627;50.920;12.050;2023-04-25T00:29:39;5.70;99.90
13123;DHT22;6627;50.920;12.050;2023-04-25T00:32:08;5.70;1.00
13123;DHT22;6627;50.920;12.050;2023-04-25T00:37:04;5.60;99.90
13123;DHT22;6627;50.920;12.050;2023-04-25T00:39:31;5.50;99.90
13123;DHT22;6627;50.920;12.050;2023-04-25T00:41:59;5.80;99.90
13123;DHT22;6627;50.920;12.050;2023-04-25T00:44:29;5.90;99.90
13123;DHT22;6627;50.920;12.050;2023-04-25T00:46:59;6.00;1.00
13123;DHT22;6627;50.920;12.050;2023-04-25T00:49:29;5.90;1.00
13123;DHT22;6627;50.920;12.050;2023-04-25T00:51:56;5.90;1.00
13123;DHT22;6627;50.920;12.050;2023-04-25T00:54:24;6.00;1.00
13123;DHT22;6627;50.920;12.050;2023-04-25T00:56:52;5.90;99.90
13123;DHT22;6627;50.920;12.050;2023-04-25T00:59:20;5.80;1.00
13123;DHT22;6627;50.920;12.050;2023-04-25T01:01:49;5.90;99.90
13123;DHT22;6627;50.920;12.050;2023-04-25T01:04:17;6.00;99.90
13123;DHT22;6627;50.920;12.050;2023-04-25T01:06:47;5.70;99.90
13123;DHT22;6627;50.920;12.050;2023-04-25T01:09:15;5.50;1.00
13123;DHT22;6627;50.920;12.050;2023-04-25T01:11:42;5.40;1.00
13123;DHT22;6627;50.920;12.050;2023-04-25T01:19:09;5.30;99.90
13123;DHT22;6627;50.920;12.050;2023-04-25T01:21:39;5.30;99.90
13123;DHT22;6627;50.920;12.050;2023-04-25T01:24:06;5.20;99.90
13123;DHT22;6627;50.920;12.050;2023-04-25T01:26:48;5.20;99.90
13123;DHT22;6627;50.920;12.050;2023-04-25T01:29:17;5.40;99.90
13123;DHT22;6627;50.920;12.050;2023-04-25T01:31:45;5.20;99.90
13123;DHT22;6627;50.920;12.050;2023-04-25T01:34:13;5.30;99.90
13123;DHT22;6627;50.920;12.050;2023-04-25T01:36:43;5.40;99.90
13123;DHT22;6627;50.920;12.050;2023-04-25T01:39:11;5.40;99.90
13123;DHT22;6627;50.920;12.050;2023-04-25T01:41:39;5.20;99.90
13123;DHT22;6627;50.920;12.050;2023-04-25T01:44:06;5.20;99.90
13123;DHT22;6627;50.920;12.050;2023-04-25T01:46:33;5.00;99.90
13123;DHT22;6627;50.920;12.050;2023-04-25T01:49:01;5.00;99.90
13123;DHT22;6627;50.920;12.050;2023-04-25T01:51:30;5.10;99.90
13123;DHT22;6627;50.920;12.050;2023-04-25T01:53:59;5.30;99.90
13123;DHT22;6627;50.920;12.050;2023-04-25T01:56:30;5.40;99.90
13123;DHT22;6627;50.920;12.050;2023-04-25T01:58:57;5.40;99.90
13123;DHT22;6627;50.920;12.050;2023-04-25T02:01:25;5.00;99.90
13123;DHT22;6627;50.920;12.050;2023-04-25T02:03:52;4.90;99.90
13123;DHT22;6627;50.920;12.050;2023-04-25T02:06:19;5.10;99.90
13123;DHT22;6627;50.920;12.050;2023-04-25T02:08:46;4.80;99.90
13123;DHT22;6627;50.920;12.050;2023-04-25T02:11:15;4.60;99.90
13123;DHT22;6627;50.920;12.050;2023-04-25T02:13:42;4.50;99.90
13123;DHT22;6627;50.920;12.050;2023-04-25T02:16:09;4.50;99.90
13123;DHT22;6627;50.920;12.050;2023-04-25T02:18:36;4.30;99.90
13123;DHT22;6627;50.920;12.050;2023-04-25T02:21:03;4.20;99.90
13123;DHT22;6627;50.920;12.050;2023-04-25T02:23:30;4.20;99.90
13123;DHT22;6627;50.920;12.050;2023-04-25T02:25:58;4.30;99.90
13123;DHT22;6627;50.920;12.050;2023-04-25T02:28:26;4.40;99.90
13123;DHT22;6627;50.920;12.050;2023-04-25T02:30:54;4.30;99.90
13123;DHT22;6627;50.920;12.050;2023-04-25T02:33:21;4.20;99.90
13123;DHT22;6627;50.920;12.050;2023-04-25T02:35:49;4.20;99.90
13123;DHT22;6627;50.920;12.050;2023-04-25T02:38:17;4.10;99.90
13123;DHT22;6627;50.920;12.050;2023-04-25T02:43:12;4.30;99.90
13123;DHT22;6627;50.920;12.050;2023-04-25T02:45:41;4.30;99.90
13123;DHT22;6627;50.920;12.050;2023-04-25T02:48:08;4.20;99.90
13123;DHT22;6627;50.920;12.050;2023-04-25T02:50:35;4.40;99.90
13123;DHT22;6627;50.920;12.050;2023-04-25T02:53:02;4.50;99.90
13123;DHT22;6627;50.920;12.050;2023-04-25T02:55:29;4.60;99.90
13123;DHT22;6627;50.920;12.050;2023-04-25T02:57:56;4.30;99.90
13123;DHT22;6627;50.920;12.050;2023-04-25T03:00:24;4.20;99.90
13123;DHT22;6627;50.920;12.050;2023-04-25T03:02:53;4.20;99.90
13123;DHT22;6627;50.920;12.050;2023-04-25T03:05:21;4.20;99.90
13123;DHT22;6627;50.920;12.050;2023-04-25T03:07:48;4.20;99.90
13123;DHT22;6627;50.920;12.050;2023-04-25T03:10:16;4.00;99.90
13123;DHT22;6627;50.920;12.050;2023-04-25T03:12:43;4.00;99.90
13123;DHT22;6627;50.920;12.050;2023-04-25T03:15:10;4.00;99.90
13123;DHT22;6627;50.920;12.050;2023-04-25T03:17:37;4.10;99.90
13123;DHT22;6627;50.920;12.050;2023-04-25T03:22:45;4.20;99.90
13123;DHT22;6627;50.920;12.050;2023-04-25T03:25:12;4.00;99.90
13123;DHT22;6627;50.920;12.050;2023-04-25T03:27:39;3.90;99.90
13123;DHT22;6627;50.920;12.050;2023-04-25T03:30:07;4.10;99.90
13123;DHT22;6627;50.920;12.050;2023-04-25T03:32:34;4.20;99.90
13123;DHT22;6627;50.920;12.050;2023-04-25T03:35:02;4.30;99.90
13123;DHT22;6627;50.920;12.050;2023-04-25T03:37:31;4.10;99.90
13123;DHT22;6627;50.920;12.050;2023-04-25T03:39:58;4.10;99.90
13123;DHT22;6627;50.920;12.050;2023-04-25T03:42:25;4.30;99.90
13123;DHT22;6627;50.920;12.050;2023-04-25T03:44:53;4.30;99.90
13123;DHT22;6627;50.920;12.050;2023-04-25T03:47:20;4.00;99.90
13123;DHT22;6627;50.920;12.050;2023-04-25T03:49:47;4.00;99.90
13123;DHT22;6627;50.920;12.050;2023-04-25T03:52:17;3.90;99.90
13123;DHT22;6627;50.920;12.050;2023-04-25T03:54:46;3.90;99.90
13123;DHT22;6627;50.920;12.050;2023-04-25T03:57:13;4.20;99.90
13123;DHT22;6627;50.920;12.050;2023-04-25T03:59:40;4.40;99.90
13123;DHT22;6627;50.920;12.050;2023-04-25T04:02:08;4.50;99.90
13123;DHT22;6627;50.920;12.050;2023-04-25T04:04:35;4.50;99.90
13123;DHT22;6627;50.920;12.050;2023-04-25T04:07:03;4.60;99.90
13123;DHT22;6627;50.920;12.050;2023-04-25T04:09:31;4.60;99.90
13123;DHT22;6627;50.920;12.050;2023-04-25T04:12:00;4.60;99.90
13123;DHT22;6627;50.920;12.050;2023-04-25T04:14:28;4.50;99.90
13123;DHT22;6627;50.920;12.050;2023-04-25T04:16:56;4.70;99.90
13123;DHT22;6627;50.920;12.050;2023-04-25T04:19:25;4.60;99.90
13123;DHT22;6627;50.920;12.050;2023-04-25T04:21:52;4.70;99.90
13123;DHT22;6627;50.920;12.050;2023-04-25T04:24:19;4.80;99.90
13123;DHT22;6627;50.920;12.050;2023-04-25T04:26:46;4.70;99.90
13123;DHT22;6627;50.920;12.050;2023-04-25T04:29:16;4.50;99.90
13123;DHT22;6627;50.920;12.050;2023-04-25T04:31:47;4.40;99.90
13123;DHT22;6627;50.920;12.050;2023-04-25T04:36:43;4.50;99.90
13123;DHT22;6627;50.920;12.050;2023-04-25T04:39:12;4.50;99.90
13123;DHT22;6627;50.920;12.050;2023-04-25T04:41:40;4.60;99.90
13123;DHT22;6627;50.920;12.050;2023-04-25T04:44:07;4.70;99.90
13123;DHT22;6627;50.920;12.050;2023-04-25T04:46:35;4.80;99.90
13123;DHT22;6627;50.920;12.050;2023-04-25T04:49:04;4.90;99.90
13123;DHT22;6627;50.920;12.050;2023-04-25T04:51:32;4.90;99.90
13123;DHT22;6627;50.920;12.050;2023-04-25T04:53:59;5.00;99.90
13123;DHT22;6627;50.920;12.050;2023-04-25T04:56:28;5.00;99.90
13123;DHT22;6627;50.920;12.050;2023-04-25T04:58:57;5.10;99.90
13123;DHT22;6627;50.920;12.050;2023-04-25T05:01:26;5.20;99.90
13123;DHT22;6627;50.920;12.050;2023-04-25T05:03:56;5.30;99.90
13123;DHT22;6627;50.920;12.050;2023-04-25T05:06:26;5.30;99.90
13123;DHT22;6627;50.920;12.050;2023-04-25T05:08:54;5.30;99.90
13123;DHT22;6627;50.920;12.050;2023-04-25T05:11:22;5.40;99.90
13123;DHT22;6627;50.920;12.050;2023-04-25T05:13:50;5.50;99.90
13123;DHT22;6627;50.920;12.050;2023-04-25T05:16:19;5.60;99.90
13123;DHT22;6627;50.920;12.050;2023-04-25T05:18:46;5.70;99.90
13123;DHT22;6627;50.920;12.050;2023-04-25T05:21:15;5.70;99.90
13123;DHT22;6627;50.920;12.050;2023-04-25T05:23:42;5.90;99.90
13123;DHT22;6627;50.920;12.050;2023-04-25T05:26:10;6.00;99.90
13123;DHT22;6627;50.920;12.050;2023-04-25T05:28:39;6.10;99.90
13123;DHT22;6627;50.920;12.050;2023-04-25T05:31:08;6.20;99.90
13123;DHT22;6627;50.920;12.050;2023-04-25T05:33:36;6.30;99.90
13123;DHT22;6627;50.920;12.050;2023-04-25T05:36:04;6.30;99.90
13123;DHT22;6627;50.920;12.050;2023-04-25T05:38:34;6.40;99.90
13123;DHT22;6627;50.920;12.050;2023-04-25T05:41:01;6.40;99.90
13123;DHT22;6627;50.920;12.050;2023-04-25T05:43:28;6.50;99.90
13123;DHT22;6627;50.920;12.050;2023-04-25T05:45:55;6.60;99.90
13123;DHT22;6627;50.920;12.050;2023-04-25T05:48:22;6.60;99.90
13123;DHT22;6627;50.920;12.050;2023-04-25T05:50:50;6.70;99.90
13123;DHT22;6627;50.920;12.050;2023-04-25T05:53:18;6.90;99.90
13123;DHT22;6627;50.920;12.050;2023-04-25T05:55:46;7.00;99.90
13123;DHT22;6627;50.920;12.050;2023-04-25T05:58:13;7.10;99.90
13123;DHT22;6627;50.920;12.050;2023-04-25T06:00:41;7.10;99.90
13123;DHT22;6627;50.920;12.050;2023-04-25T06:03:08;7.10;99.90
13123;DHT22;6627;50.920;12.050;2023-04-25T06:05:36;7.20;99.90
13123;DHT22;6627;50.920;12.050;2023-04-25T06:08:03;7.20;99.90
13123;DHT22;6627;50.920;12.050;2023-04-25T06:10:30;7.20;99.90
13123;DHT22;6627;50.920;12.050;2023-04-25T06:12:59;7.30;99.90
13123;DHT22;6627;50.920;12.050;2023-04-25T06:15:26;7.40;99.90
13123;DHT22;6627;50.920;12.050;2023-04-25T06:17:53;7.40;99.90
13123;DHT22;6627;50.920;12.050;2023-04-25T06:20:21;7.60;99.90
13123;DHT22;6627;50.920;12.050;2023-04-25T06:22:50;7.70;99.90
13123;DHT22;6627;50.920;12.050;2023-04-25T06:25:18;7.80;99.90
13123;DHT22;6627;50.920;12.050;2023-04-25T06:27:45;7.80;99.90
13123;DHT22;6627;50.920;12.050;2023-04-25T06:30:14;8.00;99.90
13123;DHT22;6627;50.920;12.050;2023-04-25T06:32:44;8.20;99.90
13123;DHT22;6627;50.920;12.050;2023-04-25T06:35:12;8.20;99.90
13123;DHT22;6627;50.920;12.050;2023-04-25T06:37:40;8.30;56.20
13123;DHT22;6627;50.920;12.050;2023-04-25T06:40:08;8.50;1.00
13123;DHT22;6627;50.920;12.050;2023-04-25T06:42:36;8.60;1.00
13123;DHT22;6627;50.920;12.050;2023-04-25T06:45:04;8.60;1.00
13123;DHT22;6627;50.920;12.050;2023-04-25T06:47:33;8.70;99.90
13123;DHT22;6627;50.920;12.050;2023-04-25T06:50:00;8.70;99.90
13123;DHT22;6627;50.920;12.050;2023-04-25T06:52:27;8.80;1.00
13123;DHT22;6627;50.920;12.050;2023-04-25T06:54:58;8.90;99.90
13123;DHT22;6627;50.920;12.050;2023-04-25T06:57:25;8.80;1.00
13123;DHT22;6627;50.920;12.050;2023-04-25T06:59:52;8.80;99.90
13123;DHT22;6627;50.920;12.050;2023-04-25T07:02:19;8.70;1.00
13123;DHT22;6627;50.920;12.050;2023-04-25T07:04:48;8.70;99.90
13123;DHT22;6627;50.920;12.050;2023-04-25T07:07:16;8.90;99.90
13123;DHT22;6627;50.920;12.050;2023-04-25T07:09:44;8.90;1.00
13123;DHT22;6627;50.920;12.050;2023-04-25T07:12:11;9.10;1.00
13123;DHT22;6627;50.920;12.050;2023-04-25T07:14:38;9.20;99.90
13123;DHT22;6627;50.920;12.050;2023-04-25T07:17:06;9.10;99.90
13123;DHT22;6627;50.920;12.050;2023-04-25T07:19:33;9.00;1.00
13123;DHT22;6627;50.920;12.050;2023-04-25T07:22:02;9.00;1.00
13123;DHT22;6627;50.920;12.050;2023-04-25T07:24:29;9.00;99.90
13123;DHT22;6627;50.920;12.050;2023-04-25T07:26:57;9.00;99.90
13123;DHT22;6627;50.920;12.050;2023-04-25T07:29:24;9.10;99.90
13123;DHT22;6627;50.920;12.050;2023-04-25T07:31:51;9.00;1.00
13123;DHT22;6627;50.920;12.050;2023-04-25T07:34:19;9.10;1.00
13123;DHT22;6627;50.920;12.050;2023-04-25T07:36:47;9.10;1.00
13123;DHT22;6627;50.920;12.050;2023-04-25T07:39:15;9.00;99.90
13123;DHT22;6627;50.920;12.050;2023-04-25T07:41:42;9.00;99.90
13123;DHT22;6627;50.920;12.050;2023-04-25T07:44:10;9.00;99.90
13123;DHT22;6627;50.920;12.050;2023-04-25T07:46:37;9.10;46.50
13123;DHT22;6627;50.920;12.050;2023-04-25T07:49:04;9.10;1.00
13123;DHT22;6627;50.920;12.050;2023-04-25T07:51:31;9.10;1.00
13123;DHT22;6627;50.920;12.050;2023-04-25T07:53:58;8.90;1.00
13123;DHT22;6627;50.920;12.050;2023-04-25T07:56:27;9.10;1.00
13123;DHT22;6627;50.920;12.050;2023-04-25T07:58:54;9.00;99.90
13123;DHT22;6627;50.920;12.050;2023-04-25T08:01:22;8.90;99.90
13123;DHT22;6627;50.920;12.050;2023-04-25T08:03:49;9.00;99.90
13123;DHT22;6627;50.920;12.050;2023-04-25T08:06:16;9.00;99.90
13123;DHT22;6627;50.920;12.050;2023-04-25T08:08:43;8.90;90.80
13123;DHT22;6627;50.920;12.050;2023-04-25T08:11:10;8.80;1.00
13123;DHT22;6627;50.920;12.050;2023-04-25T08:13:39;8.80;1.00
13123;DHT22;6627;50.920;12.050;2023-04-25T08:16:06;8.70;1.00
13123;DHT22;6627;50.920;12.050;2023-04-25T08:18:33;8.70;1.00
13123;DHT22;6627;50.920;12.050;2023-04-25T08:21:00;8.70;1.00
13123;DHT22;6627;50.920;12.050;2023-04-25T08:23:28;8.70;1.00
13123;DHT22;6627;50.920;12.050;2023-04-25T08:25:55;8.70;1.00
13123;DHT22;6627;50.920;12.050;2023-04-25T08:28:23;8.70;1.00
13123;DHT22;6627;50.920;12.050;2023-04-25T08:30:52;8.70;1.00
13123;DHT22;6627;50.920;12.050;2023-04-25T08:33:19;8.80;1.00
13123;DHT22;6627;50.920;12.050;2023-04-25T08:35:47;8.70;1.00
13123;DHT22;6627;50.920;12.050;2023-04-25T08:38:15;8.80;99.90
13123;DHT22;6627;50.920;12.050;2023-04-25T08:40:43;8.80;99.90
13123;DHT22;6627;50.920;12.050;2023-04-25T08:43:13;8.90;99.90
13123;DHT22;6627;50.920;12.050;2023-04-25T08:45:41;9.00;99.90
13123;DHT22;6627;50.920;12.050;2023-04-25T08:48:12;9.00;99.90
13123;DHT22;6627;50.920;12.050;2023-04-25T08:50:52;9.00;99.90
13123;DHT22;6627;50.920;12.050;2023-04-25T08:53:22;8.80;99.90
13123;DHT22;6627;50.920;12.050;2023-04-25T08:55:54;8.90;99.90
13123;DHT22;6627;50.920;12.050;2023-04-25T08:58:23;8.80;23.90
13123;DHT22;6627;50.920;12.050;2023-04-25T09:00:51;8.70;1.00
13123;DHT22;6627;50.920;12.050;2023-04-25T09:03:20;8.70;1.00
13123;DHT22;6627;50.920;12.050;2023-04-25T09:05:47;8.70;1.00
13123;DHT22;6627;50.920;12.050;2023-04-25T09:08:15;8.70;1.00
13123;DHT22;6627;50.920;12.050;2023-04-25T09:10:42;8.70;1.00
13123;DHT22;6627;50.920;12.050;2023-04-25T09:13:10;8.70;1.00
13123;DHT22;6627;50.920;12.050;2023-04-25T09:15:47;8.70;1.00
13123;DHT22;6627;50.920;12.050;2023-04-25T09:18:23;8.80;1.00
13123;DHT22;6627;50.920;12.050;2023-04-25T09:20:56;8.80;1.00
13123;DHT22;6627;50.920;12.050;2023-04-25T09:23:38;8.80;1.00
13123;DHT22;6627;50.920;12.050;2023-04-25T09:26:08;8.90;1.00
13123;DHT22;6627;50.920;12.050;2023-04-25T09:28:36;8.90;1.00
13123;DHT22;6627;50.920;12.050;2023-04-25T09:31:03;8.90;1.00
13123;DHT22;6627;50.920;12.050;2023-04-25T09:33:33;8.90;1.00
13123;DHT22;6627;50.920;12.050;2023-04-25T09:36:03;8.90;1.00
13123;DHT22;6627;50.920;12.050;2023-04-25T09:38:39;8.90;99.90
13123;DHT22;6627;50.920;12.050;2023-04-25T09:41:08;9.00;1.00
13123;DHT22;6627;50.920;12.050;2023-04-25T09:43:36;9.10;99.90
13123;DHT22;6627;50.920;12.050;2023-04-25T09:46:08;9.30;99.90
13123;DHT22;6627;50.920;12.050;2023-04-25T09:48:38;9.30;99.90
13123;DHT22;6627;50.920;12.050;2023-04-25T09:51:07;9.30;99.90
13123;DHT22;6627;50.920;12.050;2023-04-25T09:53:37;9.20;99.90
13123;DHT22;6627;50.920;12.050;2023-04-25T09:56:08;9.20;99.90
13123;DHT22;6627;50.920;12.050;2023-04-25T09:58:38;9.20;99.90
13123;DHT22;6627;50.920;12.050;2023-04-25T10:01:07;9.20;99.90
13123;DHT22;6627;50.920;12.050;2023-04-25T10:03:36;9.20;99.90
13123;DHT22;6627;50.920;12.050;2023-04-25T10:06:09;9.10;99.90
13123;DHT22;6627;50.920;12.050;2023-04-25T10:08:40;9.10;99.90
13123;DHT22;6627;50.920;12.050;2023-04-25T10:11:09;9.20;99.90
13123;DHT22;6627;50.920;12.050;2023-04-25T10:13:37;9.30;99.90
13123;DHT22;6627;50.920;12.050;2023-04-25T10:16:05;9.50;99.90
13123;DHT22;6627;50.920;12.050;2023-04-25T10:18:32;9.60;99.90
13123;DHT22;6627;50.920;12.050;2023-04-25T10:21:03;9.50;99.90
13123;DHT22;6627;50.920;12.050;2023-04-25T10:23:32;9.50;92.80
13123;DHT22;6627;50.920;12.050;2023-04-25T10:26:01;9.40;22.10
13123;DHT22;6627;50.920;12.050;2023-04-25T10:28:29;9.40;9.90
13123;DHT22;6627;50.920;12.050;2023-04-25T10:31:23;9.30;1.00
13123;DHT22;6627;50.920;12.050;2023-04-25T10:33:51;9.30;1.00
13123;DHT22;6627;50.920;12.050;2023-04-25T10:36:21;9.20;1.00
13123;DHT22;6627;50.920;12.050;2023-04-25T10:38:50;9.20;1.00
13123;DHT22;6627;50.920;12.050;2023-04-25T10:41:19;9.10;1.00
13123;DHT22;6627;50.920;12.050;2023-04-25T10:43:50;9.00;99.90
13123;DHT22;6627;50.920;12.050;2023-04-25T10:46:28;8.90;99.90
13123;DHT22;6627;50.920;12.050;2023-04-25T10:48:57;8.80;1.00
13123;DHT22;6627;50.920;12.050;2023-04-25T10:51:29;8.70;1.00
13123;DHT22;6627;50.920;12.050;2023-04-25T10:56:30;8.60;2.20
13123;DHT22;6627;50.920;12.050;2023-04-25T10:59:06;8.70;99.90
13123;DHT22;6627;50.920;12.050;2023-04-25T11:01:38;8.60;99.90
13123;DHT22;6627;50.920;12.050;2023-04-25T11:04:19;8.60;78.90
13123;DHT22;6627;50.920;12.050;2023-04-25T11:06:58;8.60;99.90
13123;DHT22;6627;50.920;12.050;2023-04-25T11:09:33;8.60;99.90
13123;DHT22;6627;50.920;12.050;2023-04-25T11:12:02;8.50;99.90
13123;DHT22;6627;50.920;12.050;2023-04-25T11:14:29;8.60;93.90
13123;DHT22;6627;50.920;12.050;2023-04-25T11:16:57;8.80;99.90
13123;DHT22;6627;50.920;12.050;2023-04-25T11:19:26;8.90;99.90
13123;DHT22;6627;50.920;12.050;2023-04-25T11:21:56;8.70;86.90
13123;DHT22;6627;50.920;12.050;2023-04-25T11:24:26;8.80;99.90
13123;DHT22;6627;50.920;12.050;2023-04-25T11:26:53;8.50;1.00
13123;DHT22;6627;50.920;12.050;2023-04-25T11:29:22;8.30;1.00
13123;DHT22;6627;50.920;12.050;2023-04-25T11:31:50;8.40;99.90
13123;DHT22;6627;50.920;12.050;2023-04-25T11:34:17;8.20;1.00
13123;DHT22;6627;50.920;12.050;2023-04-25T11:39:14;8.70;1.00
13123;DHT22;6627;50.920;12.050;2023-04-25T11:41:42;8.80;99.90
13123;DHT22;6627;50.920;12.050;2023-04-25T11:44:09;8.90;1.00
13123;DHT22;6627;50.920;12.050;2023-04-25T11:49:05;9.00;99.90
13123;DHT22;6627;50.920;12.050;2023-04-25T11:51:38;9.10;99.90
13123;DHT22;6627;50.920;12.050;2023-04-25T11:54:06;9.20;1.00
13123;DHT22;6627;50.920;12.050;2023-04-25T11:56:35;9.40;1.00
13123;DHT22;6627;50.920;12.050;2023-04-25T11:59:04;9.40;99.90
13123;DHT22;6627;50.920;12.050;2023-04-25T12:01:33;9.50;1.00
13123;DHT22;6627;50.920;12.050;2023-04-25T12:04:12;9.70;99.90
13123;DHT22;6627;50.920;12.050;2023-04-25T12:06:43;9.90;99.90
13123;DHT22;6627;50.920;12.050;2023-04-25T12:09:12;9.80;99.90
13123;DHT22;6627;50.920;12.050;2023-04-25T12:11:43;9.90;99.90
13123;DHT22;6627;50.920;12.050;2023-04-25T12:14:11;9.60;1.00
13123;DHT22;6627;50.920;12.050;2023-04-25T12:16:42;9.60;1.00
13123;DHT22;6627;50.920;12.050;2023-04-25T12:19:13;9.60;1.00
13123;DHT22;6627;50.920;12.050;2023-04-25T12:21:41;9.70;99.90
13123;DHT22;6627;50.920;12.050;2023-04-25T12:24:13;9.70;99.90
13123;DHT22;6627;50.920;12.050;2023-04-25T12:26:52;9.60;27.60
13123;DHT22;6627;50.920;12.050;2023-04-25T12:29:26;9.50;1.00
13123;DHT22;6627;50.920;12.050;2023-04-25T12:31:55;9.50;1.00
13123;DHT22;6627;50.920;12.050;2023-04-25T12:34:23;9.60;1.00
13123;DHT22;6627;50.920;12.050;2023-04-25T12:36:51;9.60;1.00
13123;DHT22;6627;50.920;12.050;2023-04-25T12:39:20;9.70;1.00
13123;DHT22;6627;50.920;12.050;2023-04-25T12:41:51;9.80;99.90
13123;DHT22;6627;50.920;12.050;2023-04-25T12:44:19;9.90;99.90
13123;DHT22;6627;50.920;12.050;2023-04-25T12:46:47;9.90;99.90
13123;DHT22;6627;50.920;12.050;2023-04-25T12:49:15;9.90;99.90
13123;DHT22;6627;50.920;12.050;2023-04-25T12:51:43;10.00;99.90
13123;DHT22;6627;50.920;12.050;2023-04-25T12:54:11;10.20;99.90
13123;DHT22;6627;50.920;12.050;2023-04-25T12:56:38;10.40;99.90
13123;DHT22;6627;50.920;12.050;2023-04-25T12:59:06;10.40;18.10
13123;DHT22;6627;50.920;12.050;2023-04-25T13:01:35;10.50;1.00
13123;DHT22;6627;50.920;12.050;2023-04-25T13:04:02;10.70;1.00
13123;DHT22;6627;50.920;12.050;2023-04-25T13:06:30;10.80;1.00
13123;DHT22;6627;50.920;12.050;2023-04-25T13:08:57;10.70;1.00
13123;DHT22;6627;50.920;12.050;2023-04-25T13:11:25;10.70;1.00
13123;DHT22;6627;50.920;12.050;2023-04-25T13:13:52;10.60;1.00
13123;DHT22;6627;50.920;12.050;2023-04-25T13:16:21;10.60;1.00
13123;DHT22;6627;50.920;12.050;2023-04-25T13:18:48;10.40;1.00
13123;DHT22;6627;50.920;12.050;2023-04-25T13:21:15;10.40;99.90
13123;DHT22;6627;50.920;12.050;2023-04-25T13:23:43;10.20;99.90
13123;DHT22;6627;50.920;12.050;2023-04-25T13:26:12;9.90;99.90
13123;DHT22;6627;50.920;12.050;2023-04-25T13:28:39;9.40;99.90
13123;DHT22;6627;50.920;12.050;2023-04-25T13:31:07;9.40;99.90
13123;DHT22;6627;50.920;12.050;2023-04-25T13:33:36;9.40;99.90
13123;DHT22;6627;50.920;12.050;2023-04-25T13:36:04;9.30;99.90
13123;DHT22;6627;50.920;12.050;2023-04-25T13:38:33;9.30;80.00
13123;DHT22;6627;50.920;12.050;2023-04-25T13:41:00;9.30;51.30
13123;DHT22;6627;50.920;12.050;2023-04-25T13:43:28;9.40;14.20
13123;DHT22;6627;50.920;12.050;2023-04-25T13:45:56;9.40;1.00
13123;DHT22;6627;50.920;12.050;2023-04-25T13:48:24;9.50;1.00
13123;DHT22;6627;50.920;12.050;2023-04-25T13:50:52;9.60;1.00
13123;DHT22;6627;50.920;12.050;2023-04-25T13:53:19;9.70;1.00
13123;DHT22;6627;50.920;12.050;2023-04-25T13:55:47;9.70;1.00
13123;DHT22;6627;50.920;12.050;2023-04-25T13:58:14;9.70;1.00
13123;DHT22;6627;50.920;12.050;2023-04-25T14:03:11;10.00;1.00
13123;DHT22;6627;50.920;12.050;2023-04-25T14:05:39;10.10;1.00
13123;DHT22;6627;50.920;12.050;2023-04-25T14:08:09;10.30;1.00
13123;DHT22;6627;50.920;12.050;2023-04-25T14:10:37;10.60;1.00
13123;DHT22;6627;50.920;12.050;2023-04-25T14:13:04;10.60;1.00
13123;DHT22;6627;50.920;12.050;2023-04-25T14:15:32;10.50;1.00
13123;DHT22;6627;50.920;12.050;2023-04-25T14:18:02;10.50;99.90
13123;DHT22;6627;50.920;12.050;2023-04-25T14:20:30;10.50;99.90
13123;DHT22;6627;50.920;12.050;2023-04-25T14:22:57;10.40;99.90
13123;DHT22;6627;50.920;12.050;2023-04-25T14:25:27;10.50;99.90
13123;DHT22;6627;50.920;12.050;2023-04-25T14:27:54;10.70;99.90
13123;DHT22;6627;50.920;12.050;2023-04-25T14:30:22;10.60;99.90
13123;DHT22;6627;50.920;12.050;2023-04-25T14:32:49;10.50;99.90
13123;DHT22;6627;50.920;12.050;2023-04-25T14:35:17;10.50;99.90
13123;DHT22;6627;50.920;12.050;2023-04-25T14:37:44;10.50;99.90
13123;DHT22;6627;50.920;12.050;2023-04-25T14:40:13;10.70;99.90
13123;DHT22;6627;50.920;12.050;2023-04-25T14:42:44;10.70;99.90
13123;DHT22;6627;50.920;12.050;2023-04-25T14:45:11;10.70;99.90
13123;DHT22;6627;50.920;12.050;2023-04-25T14:47:38;10.40;79.80
13123;DHT22;6627;50.920;12.050;2023-04-25T14:50:07;10.40;21.20
13123;DHT22;6627;50.920;12.050;2023-04-25T14:52:35;10.40;10.90
13123;DHT22;6627;50.920;12.050;2023-04-25T14:55:03;10.40;1.00
13123;DHT22;6627;50.920;12.050;2023-04-25T14:57:32;10.30;1.00
13123;DHT22;6627;50.920;12.050;2023-04-25T15:00:01;10.40;1.00
13123;DHT22;6627;50.920;12.050;2023-04-25T15:02:31;10.40;1.00
13123;DHT22;6627;50.920;12.050;2023-04-25T15:04:58;10.50;1.00
13123;DHT22;6627;50.920;12.050;2023-04-25T15:07:27;10.30;1.00
13123;DHT22;6627;50.920;12.050;2023-04-25T15:09:54;10.40;1.00
13123;DHT22;6627;50.920;12.050;2023-04-25T15:12:22;10.30;1.00
13123;DHT22;6627;50.920;12.050;2023-04-25T15:14:51;10.30;1.00
13123;DHT22;6627;50.920;12.050;2023-04-25T15:17:20;10.10;1.00
13123;DHT22;6627;50.920;12.050;2023-04-25T15:19:47;10.20;1.00
13123;DHT22;6627;50.920;12.050;2023-04-25T15:22:15;10.20;1.00
13123;DHT22;6627;50.920;12.050;2023-04-25T15:24:43;10.10;1.00
13123;DHT22;6627;50.920;12.050;2023-04-25T15:27:12;10.40;1.00
13123;DHT22;6627;50.920;12.050;2023-04-25T15:29:40;10.50;1.00
13123;DHT22;6627;50.920;12.050;2023-04-25T15:32:07;10.40;1.00
13123;DHT22;6627;50.920;12.050;2023-04-25T15:34:36;10.40;1.00
13123;DHT22;6627;50.920;12.050;2023-04-25T15:37:03;10.20;1.00
13123;DHT22;6627;50.920;12.050;2023-04-25T15:39:31;10.00;1.00
13123;DHT22;6627;50.920;12.050;2023-04-25T15:41:58;10.00;1.00
13123;DHT22;6627;50.920;12.050;2023-04-25T15:44:26;9.90;1.00
13123;DHT22;6627;50.920;12.050;2023-04-25T15:46:54;9.80;1.00
13123;DHT22;6627;50.920;12.050;2023-04-25T15:49:21;9.80;1.00
13123;DHT22;6627;50.920;12.050;2023-04-25T15:51:49;9.60;1.00
13123;DHT22;6627;50.920;12.050;2023-04-25T15:54:17;9.60;1.00
13123;DHT22;6627;50.920;12.050;2023-04-25T15:56:46;9.60;1.00
13123;DHT22;6627;50.920;12.050;2023-04-25T15:59:13;9.50;1.00
13123;DHT22;6627;50.920;12.050;2023-04-25T16:01:40;9.50;1.00
13123;DHT22;6627;50.920;12.050;2023-04-25T16:04:07;9.50;1.00
13123;DHT22;6627;50.920;12.050;2023-04-25T16:06:34;9.60;1.00
13123;DHT22;6627;50.920;12.050;2023-04-25T16:09:04;9.60;1.00
13123;DHT22;6627;50.920;12.050;2023-04-25T16:11:32;9.60;1.00
13123;DHT22;6627;50.920;12.050;2023-04-25T16:14:01;9.70;99.90
13123;DHT22;6627;50.920;12.050;2023-04-25T16:16:28;9.80;99.90
13123;DHT22;6627;50.920;12.050;2023-04-25T16:18:55;10.00;1.00
13123;DHT22;6627;50.920;12.050;2023-04-25T16:21:23;10.00;1.00